الصفحة الرئيسية
METAR-TAF:

METAR-TAF

مطار :

Mersing, ماليزيا

دائرة عرض: 02-23-00N, خط طول: 103-51-34E, ارتفاع: 3 متر

مراقبة الطقس الحالي

تاريخ ووقت الإصدار 32 دقيقة قبل الساعة 02:00UTC
ريح 7 عقدةمن اتجاهات متغيرة
درجة الحرارة 29°درجة مئوية
الرطوبة 79%
ضغط 1012 hPa
الرؤية: 9000 متر
غيوم متفرقة على ارتفاع 2000 قدم

METAR: WMAU 190200Z VRB07KT 9000 SCT020 29/25 Q1012

زمن: 10:32 (02:32 UTC)


TAF: مفقودة

أرصاد الطقس والتوقعات من أكثر من 4000 مطار (تقارير الطقس للمطار METAR والتنبؤ بالطقس بالمطارTAF).

المحطات المتاحة هي النقط الصفراء والحمراء على الخريطة.

حرك المؤشر فوق النقطة لمعرفة اسم المحطة.

ثم انقر لمعرفة أرصاد وتوقعات الطقس.

لتغيير الخارطة: اضغط على الأزرار الخضراء مع رمز الصليب الأسود للتكبير. على الزر الأخضر مع شرطة للتصغير، أو على الأسهم الخضراء للخرائط المجاورة.


METAR-TAF: